Time;durP1;ratioP1;P1;durP2;ratioP2;P2;SDS_P1;SDS_P2;PMS_P1;PMS_P2;Temp;Humidity;BMP_temperature;BMP_pressure;BME280_temperature;BME280_humidity;BME280_pressure;Samples;Min_cycle;Max_cycle;Signal;HPM_P1;HPM_P2
2021/04/03 00:04:43;;;;;;;;;;;5.50;99.90;;;4.20;73.48;95822.53;10417847;28;1981;-87
2021/04/03 00:09:45;;;;;;;;;;;5.40;99.90;;;4.13;74.13;95816.47;10402924;28;1834;-84
2021/04/03 00:14:47;;;;;;;;;;;5.30;99.90;;;4.09;74.00;95823.34;10427002;28;1919;-84
2021/04/03 00:19:54;;;;;;;;;;;5.30;99.90;;;4.03;74.58;95821.59;10434393;28;1927;-85
2021/04/03 00:24:56;;;;;;;;;;;5.20;99.90;;;4.01;74.27;95810.38;10430291;28;1912;-84
2021/04/03 00:29:58;;;;;;;;;;;5.20;99.90;;;4.03;74.54;95805.63;10416544;28;1700;-85
2021/04/03 00:35:00;;;;;;;;;;;5.10;99.90;;;4.00;74.57;95808.75;10411082;28;2001;-87
2021/04/03 00:40:05;;;;;;;;;;;6.40;99.90;;;4.01;74.05;95805.88;10425118;28;2389;-86
2021/04/03 00:45:07;;;;;;;;;;;5.10;99.90;;;4.01;74.70;95807.72;10427753;28;2151;-87
2021/04/03 00:50:08;;;;;;;;;;;5.10;99.90;;;4.14;74.42;95807.50;10425700;28;2369;-87
2021/04/03 00:55:10;;;;;;;;;;;5.20;99.90;;;4.26;73.89;95800.31;10424288;28;2144;-85
2021/04/03 01:00:12;;;;;;;;;;;5.50;99.90;;;4.43;73.39;95805.72;10427996;28;2083;-86
2021/04/03 01:05:14;;;;;;;;;;;5.30;99.90;;;4.47;72.88;95822.84;10404072;28;2195;-88
2021/04/03 01:10:16;;;;;;;;;;;5.40;99.90;;;4.38;72.69;95823.41;10420848;28;2081;-87
2021/04/03 01:15:18;;;;;;;;;;;5.40;99.90;;;4.44;72.39;95827.81;10427726;28;2441;-85
2021/04/03 01:20:19;;;;;;;;;;;5.40;99.90;;;4.41;72.25;95831.75;10405994;28;2518;-86
2021/04/03 01:25:21;;;;;;;;;;;6.60;99.90;;;4.39;71.95;95827.69;10421959;28;2155;-86
2021/04/03 01:30:23;;;;;;;;;;;5.40;99.90;;;4.20;72.00;95838.50;10430655;28;2421;-85
2021/04/03 01:35:25;;;;;;;;;;;4.80;99.90;;;3.99;72.67;95850.50;10442498;28;2114;-85
2021/04/03 01:40:27;;;;;;;;;;;5.10;99.90;;;3.97;72.89;95859.75;10430614;28;1830;-86
2021/04/03 01:45:28;;;;;;;;;;;5.00;99.90;;;3.92;72.55;95849.78;10456428;28;1879;-83
2021/04/03 01:50:30;;;;;;;;;;;4.90;99.90;;;3.90;72.28;95861.72;10452099;28;1736;-84
2021/04/03 01:55:32;;;;;;;;;;;5.70;99.90;;;3.76;72.23;95871.75;10433226;28;1975;-85
2021/04/03 02:00:34;;;;;;;;;;;5.50;99.90;;;3.61;72.08;95868.69;10430753;28;2094;-82
2021/04/03 02:05:36;;;;;;;;;;;4.80;99.90;;;3.60;71.42;95873.19;10434244;28;1985;-85
2021/04/03 02:10:37;;;;;;;;;;;5.70;99.90;;;3.47;71.26;95857.44;10417336;28;2035;-85
2021/04/03 02:15:39;;;;;;;;;;;4.50;99.90;;;3.39;70.93;95866.56;10422053;28;2102;-86
2021/04/03 02:20:43;;;;;;;;;;;5.90;99.90;;;3.38;70.66;95861.47;10398306;28;2438;-84
2021/04/03 02:25:44;;;;;;;;;;;4.60;99.90;;;3.39;70.40;95855.13;10425187;28;2032;-85
2021/04/03 02:30:46;;;;;;;;;;;6.10;99.90;;;3.34;70.08;95852.31;10408069;28;2536;-83
2021/04/03 02:35:48;;;;;;;;;;;4.30;99.90;;;3.36;69.53;95844.94;10433324;28;2421;-83
2021/04/03 02:40:50;;;;;;;;;;;4.40;99.90;;;3.39;69.18;95849.81;10451885;28;2601;-83
2021/04/03 02:45:51;;;;;;;;;;;4.40;99.90;;;3.40;68.51;95846.91;10454299;28;1648;-83
2021/04/03 02:50:53;;;;;;;;;;;6.30;99.90;;;3.33;67.75;95848.03;10451868;28;2159;-85
2021/04/03 02:55:55;;;;;;;;;;;5.10;99.90;;;3.35;67.33;95853.94;10433380;28;1977;-84
2021/04/03 03:00:57;;;;;;;;;;;4.10;99.90;;;3.28;66.08;95853.22;10446670;28;1608;-86
2021/04/03 03:05:59;;;;;;;;;;;4.30;99.90;;;3.31;67.00;95864.22;10447854;28;2139;-83
2021/04/03 03:11:03;;;;;;;;;;;4.30;99.90;;;3.30;65.12;95867.09;10446905;28;2243;-82
2021/04/03 03:16:05;;;;;;;;;;;4.30;99.50;;;3.30;64.22;95867.88;10415744;28;2093;-84
2021/04/03 03:21:07;;;;;;;;;;;4.90;99.20;;;3.28;64.16;95869.16;10435935;28;2049;-84
2021/04/03 03:26:09;;;;;;;;;;;4.20;98.30;;;3.15;64.78;95868.31;10442512;28;2173;-82
2021/04/03 03:31:11;;;;;;;;;;;4.80;99.10;;;3.12;65.32;95863.44;10447359;28;2314;-83
2021/04/03 03:36:12;;;;;;;;;;;4.90;99.40;;;3.10;65.62;95862.84;10447139;28;2168;-82
2021/04/03 03:41:14;;;;;;;;;;;5.30;99.90;;;3.11;65.68;95863.66;10437740;28;1905;-85
2021/04/03 03:46:16;;;;;;;;;;;4.10;99.30;;;3.09;64.50;95866.53;10449378;28;1851;-84
2021/04/03 03:51:18;;;;;;;;;;;6.10;99.70;;;3.16;65.40;95877.09;10437353;28;2195;-84
2021/04/03 03:56:20;;;;;;;;;;;4.50;99.60;;;3.14;66.52;95869.34;10434781;28;2203;-86
2021/04/03 04:01:22;;;;;;;;;;;4.10;99.90;;;3.11;67.08;95872.44;10427252;28;1836;-86
2021/04/03 04:06:24;;;;;;;;;;;6.50;99.90;;;2.97;67.85;95873.63;10404117;28;2060;-84
2021/04/03 04:11:26;;;;;;;;;;;4.00;99.90;;;3.01;67.00;95874.81;10440192;28;1950;-86
2021/04/03 04:16:28;;;;;;;;;;;4.70;99.90;;;3.01;67.32;95874.81;10439721;28;2088;-84
2021/04/03 04:21:29;;;;;;;;;;;4.00;99.90;;;3.04;67.66;95874.38;10450548;28;2053;-86
2021/04/03 04:26:31;;;;;;;;;;;4.30;99.90;;;3.12;66.72;95882.03;10431333;28;2175;-84
2021/04/03 04:31:33;;;;;;;;;;;4.10;99.90;;;3.05;66.11;95886.59;10451365;28;2081;-86
2021/04/03 04:36:35;;;;;;;;;;;5.30;99.90;;;3.04;66.90;95892.94;10450735;28;2009;-84
2021/04/03 04:41:37;;;;;;;;;;;5.50;99.90;;;2.96;67.46;95914.50;10447945;28;2195;-84
2021/04/03 04:46:39;;;;;;;;;;;3.90;99.90;;;3.01;67.21;95906.69;10434321;28;2048;-84
2021/04/03 04:51:40;;;;;;;;;;;4.60;99.90;;;2.92;66.61;95913.31;10450096;28;2057;-84
2021/04/03 04:56:43;;;;;;;;;;;5.00;99.90;;;2.91;67.06;95928.44;10437074;28;1966;-85
2021/04/03 05:01:45;;;;;;;;;;;3.90;99.90;;;2.90;67.88;95920.69;10429042;28;1977;-86
2021/04/03 05:06:47;;;;;;;;;;;4.50;99.90;;;2.94;68.85;95941.28;10427736;28;1832;-88
2021/04/03 05:11:49;;;;;;;;;;;4.90;99.90;;;2.82;68.67;95950.22;10429931;28;2104;-86
2021/04/03 05:16:51;;;;;;;;;;;5.80;99.90;;;2.90;68.18;95958.69;10415472;28;2258;-86
2021/04/03 05:21:52;;;;;;;;;;;4.40;99.90;;;2.94;67.96;95965.19;10424154;28;2040;-86
2021/04/03 05:26:54;;;;;;;;;;;3.90;99.90;;;2.88;68.13;95973.22;10409468;28;1955;-86
2021/04/03 05:31:56;;;;;;;;;;;3.80;99.90;;;2.80;67.73;95979.63;10410640;28;2131;-86
2021/04/03 05:36:58;;;;;;;;;;;3.80;99.90;;;2.70;67.45;95990.75;10444029;28;1997;-84
2021/04/03 05:41:59;;;;;;;;;;;3.70;99.90;;;2.87;66.48;95992.84;10426507;28;1946;-85
2021/04/03 05:47:03;;;;;;;;;;;3.80;99.90;;;2.69;65.05;95997.09;10413118;28;2022;-87
2021/04/03 05:52:05;;;;;;;;;;;3.80;99.10;;;2.77;64.82;96005.81;10412255;28;2150;-85
2021/04/03 05:57:07;;;;;;;;;;;3.70;98.60;;;2.79;64.55;96006.38;10427163;28;2037;-86
2021/04/03 06:02:09;;;;;;;;;;;3.70;98.80;;;2.87;64.18;96006.13;10425466;28;2012;-85
2021/04/03 06:07:11;;;;;;;;;;;4.40;98.70;;;3.10;63.47;96003.63;10420076;28;2139;-87
2021/04/03 06:12:12;;;;;;;;;;;4.50;98.30;;;3.25;62.63;96004.06;10434458;28;2069;-86
2021/04/03 06:17:14;;;;;;;;;;;4.50;97.30;;;3.47;62.51;96019.56;10408035;28;2029;-86
2021/04/03 06:22:16;;;;;;;;;;;6.50;98.50;;;3.53;61.71;96019.47;10419600;28;2112;-86
2021/04/03 06:27:18;;;;;;;;;;;4.40;96.20;;;3.51;61.92;96028.72;10435582;28;2065;-85
2021/04/03 06:32:19;;;;;;;;;;;5.50;96.80;;;3.71;60.98;96023.97;10397373;28;2095;-85
2021/04/03 06:37:21;;;;;;;;;;;4.50;95.90;;;3.72;61.76;96041.53;10421509;28;2088;-87
2021/04/03 06:42:23;;;;;;;;;;;4.60;95.40;;;3.90;61.31;96042.56;10417286;28;2066;-84
2021/04/03 06:47:25;;;;;;;;;;;4.70;95.40;;;4.02;60.77;96048.72;10425971;28;2039;-86
2021/04/03 06:52:27;;;;;;;;;;;4.90;94.80;;;3.77;60.67;96057.63;10404564;28;2119;-85
2021/04/03 06:57:29;;;;;;;;;;;4.80;94.30;;;3.40;62.09;96059.50;10421151;28;2152;-86
2021/04/03 07:02:31;;;;;;;;;;;4.90;95.10;;;3.39;62.77;96071.16;10420358;28;1938;-84
2021/04/03 07:07:33;;;;;;;;;;;6.30;96.80;;;3.72;61.81;96068.13;10409947;28;1985;-88
2021/04/03 07:12:35;;;;;;;;;;;4.60;95.90;;;3.96;61.16;96060.28;10415027;28;2068;-86
2021/04/03 07:17:37;;;;;;;;;;;4.80;94.90;;;4.05;59.89;96064.22;10427478;28;2131;-85
2021/04/03 07:22:39;;;;;;;;;;;5.00;93.80;;;3.60;60.31;96075.22;10417065;28;2076;-84
2021/04/03 07:27:42;;;;;;;;;;;6.90;94.40;;;3.45;61.27;96066.81;10445991;28;1886;-82
2021/04/03 07:32:44;;;;;;;;;;;4.50;94.00;;;3.78;60.50;96082.38;10440249;28;1798;-84
2021/04/03 07:37:46;;;;;;;;;;;6.90;95.10;;;4.06;59.75;96079.97;10427151;28;1998;-86
2021/04/03 07:42:48;;;;;;;;;;;5.60;93.40;;;4.40;59.09;96080.34;10417764;28;1979;-84
2021/04/03 07:47:50;;;;;;;;;;;5.40;92.50;;;4.69;57.83;96083.97;10387300;28;2086;-84
2021/04/03 07:52:53;;;;;;;;;;;5.70;91.50;;;4.95;56.68;96095.25;10405675;28;2026;-85
2021/04/03 07:57:55;;;;;;;;;;;6.60;90.70;;;5.17;55.84;96104.31;10411581;28;1999;-89
2021/04/03 08:03:21;;;;;;;;;;;6.00;89.40;;;5.15;56.87;96098.38;10421224;28;1925;-88
2021/04/03 08:19:43;;;;;;;;;;;6.70;86.20;;;5.83;51.77;96108.44;10452012;28;1622;-89
2021/04/03 08:24:48;;;;;;;;;;;6.90;83.90;;;5.48;52.40;96107.69;10443412;28;2329;-85
2021/04/03 08:29:50;;;;;;;;;;;8.50;84.90;;;5.21;53.35;96108.13;10425437;28;2041;-86
2021/04/03 08:34:53;;;;;;;;;;;6.20;85.10;;;5.66;51.31;96116.34;10439014;28;2013;-86
2021/04/03 08:39:55;;;;;;;;;;;6.70;83.90;;;5.58;51.02;96119.38;10396461;28;2159;-87
2021/04/03 08:44:57;;;;;;;;;;;6.70;82.50;;;5.76;51.37;96115.75;10420022;28;2013;-88
2021/04/03 08:49:59;;;;;;;;;;;6.50;83.40;;;5.95;49.96;96124.44;10418429;28;1952;-88
2021/04/03 08:55:03;;;;;;;;;;;6.90;82.60;;;6.90;46.30;96099.78;10409288;28;1976;-88
2021/04/03 09:00:05;;;;;;;;;;;7.50;79.70;;;5.84;48.09;96123.38;10433652;28;2010;-86
2021/04/03 09:05:08;;;;;;;;;;;8.60;78.90;;;6.06;46.75;96131.63;10438299;28;2090;-87
2021/04/03 09:10:10;;;;;;;;;;;8.40;78.60;;;5.68;48.48;96132.94;10422930;28;2051;-89
2021/04/03 09:15:11;;;;;;;;;;;8.40;79.20;;;6.25;47.08;96128.78;10422668;28;2347;-85
2021/04/03 09:20:14;;;;;;;;;;;7.00;78.30;;;6.71;46.35;96125.09;10425322;28;1969;-86
2021/04/03 09:25:16;;;;;;;;;;;7.30;78.10;;;7.82;44.16;96119.84;10437162;28;2107;-87
2021/04/03 09:30:18;;;;;;;;;;;9.40;77.60;;;8.43;43.33;96117.97;10418601;28;1835;-89
2021/04/03 09:35:23;;;;;;;;;;;9.00;75.30;;;7.70;44.76;96135.19;10432681;28;2396;-85
2021/04/03 09:40:27;;;;;;;;;;;9.30;74.90;;;7.48;46.10;96137.84;10424152;28;1987;-86
2021/04/03 09:45:29;;;;;;;;;;;8.40;75.60;;;6.91;44.34;96138.81;10437292;28;2054;-87
2021/04/03 09:50:31;;;;;;;;;;;7.80;73.20;;;7.25;42.96;96139.66;10429747;28;1966;-87
2021/04/03 09:55:33;;;;;;;;;;;8.20;72.90;;;7.62;44.94;96141.78;10403886;28;2256;-86
2021/04/03 10:00:36;;;;;;;;;;;8.40;75.30;;;7.11;45.99;96150.88;10424865;28;2085;-86
2021/04/03 10:05:38;;;;;;;;;;;8.00;75.60;;;7.37;45.16;96152.09;10433029;28;2000;-85
2021/04/03 10:10:39;;;;;;;;;;;8.00;75.40;;;7.10;45.19;96163.44;10431843;28;1983;-85
2021/04/03 10:15:42;;;;;;;;;;;8.00;74.40;;;6.92;45.73;96167.16;10421431;28;1947;-84
2021/04/03 10:20:47;;;;;;;;;;;7.90;74.60;;;6.67;46.49;96178.19;10403331;28;2024;-84
2021/04/03 10:25:49;;;;;;;;;;;7.70;75.30;;;6.68;46.21;96157.63;10412287;28;2313;-81
2021/04/03 10:30:51;;;;;;;;;;;7.60;75.30;;;7.24;41.87;96164.75;10391932;28;2330;-84
2021/04/03 10:35:53;;;;;;;;;;;7.80;72.70;;;7.79;40.19;96157.84;10405395;28;1953;-88
2021/04/03 10:40:55;;;;;;;;;;;8.20;70.70;;;7.93;39.23;96156.41;10399750;28;1970;-87
2021/04/03 10:46:03;;;;;;;;;;;8.70;68.90;;;8.15;38.29;96163.69;10423586;28;1918;-86
2021/04/03 10:51:05;;;;;;;;;;;9.10;67.60;;;8.10;38.02;96161.72;10403167;28;1558;-86
2021/04/03 10:56:07;;;;;;;;;;;9.60;67.00;;;7.52;40.81;96168.41;10429682;28;2055;-83
2021/04/03 11:01:09;;;;;;;;;;;8.50;67.70;;;7.94;40.91;96167.94;10421740;28;1928;-85
2021/04/03 11:06:11;;;;;;;;;;;8.60;69.40;;;8.07;41.66;96164.88;10409794;28;1895;-87
2021/04/03 11:11:15;;;;;;;;;;;8.90;69.90;;;8.10;41.44;96154.50;10428727;28;1948;-85
2021/04/03 11:16:17;;;;;;;;;;;10.20;70.30;;;8.59;41.15;96161.81;10427017;28;1666;-84
2021/04/03 11:21:19;;;;;;;;;;;9.30;69.20;;;8.26;38.62;96168.88;10440338;28;1630;-87
2021/04/03 11:26:24;;;;;;;;;;;10.00;66.50;;;7.99;40.01;96168.81;10423104;28;1910;-84
2021/04/03 11:31:25;;;;;;;;;;;8.90;67.30;;;7.64;42.39;96179.03;10419329;28;1681;-86
2021/04/03 11:36:28;;;;;;;;;;;9.60;69.30;;;7.39;43.52;96166.06;10421028;28;1351;-86
2021/04/03 11:41:30;;;;;;;;;;;8.30;70.20;;;7.27;42.75;96172.31;10414269;28;1563;-86
2021/04/03 11:46:32;;;;;;;;;;;8.30;69.40;;;8.06;40.19;96156.06;10401002;28;2038;-86
2021/04/03 11:51:34;;;;;;;;;;;8.50;68.80;;;8.69;38.05;96151.19;10416815;28;1561;-86
2021/04/03 11:56:36;;;;;;;;;;;9.60;66.70;;;9.07;37.00;96141.38;10425554;28;1965;-86
2021/04/03 12:01:38;;;;;;;;;;;9.70;65.40;;;8.75;38.82;96144.03;10401742;28;2005;-85
2021/04/03 12:06:40;;;;;;;;;;;9.90;65.10;;;7.80;42.14;96151.41;10420551;28;1976;-84
2021/04/03 12:11:41;;;;;;;;;;;9.10;67.80;;;7.03;42.76;96157.44;10396711;28;1201;-86
2021/04/03 12:16:43;;;;;;;;;;;8.30;68.20;;;7.12;42.40;96163.19;10406106;28;1978;-85
2021/04/03 12:21:45;;;;;;;;;;;8.50;69.30;;;7.36;42.33;96145.94;10419926;28;1595;-85
2021/04/03 12:26:47;;;;;;;;;;;8.20;69.20;;;7.42;43.31;96144.97;10418749;28;1895;-85
2021/04/03 12:31:49;;;;;;;;;;;8.20;70.10;;;7.49;43.84;96150.16;10414122;28;1556;-83
2021/04/03 12:36:50;;;;;;;;;;;8.40;70.60;;;8.18;41.15;96139.06;10436602;28;1220;-84
2021/04/03 12:41:52;;;;;;;;;;;9.60;69.30;;;8.33;37.32;96133.88;10434204;28;1595;-83
2021/04/03 12:46:54;;;;;;;;;;;9.00;65.20;;;8.38;35.95;96136.66;10428772;28;1898;-84
2021/04/03 12:51:56;;;;;;;;;;;9.80;63.60;;;8.43;35.12;96134.03;10430103;28;2012;-84
2021/04/03 12:56:58;;;;;;;;;;;9.30;61.10;;;8.69;35.30;96131.63;10449981;28;1425;-85
2021/04/03 13:01:59;;;;;;;;;;;9.50;61.70;;;8.64;36.18;96129.69;10448417;28;1167;-84
2021/04/03 13:07:03;;;;;;;;;;;9.60;62.10;;;9.36;35.85;96121.25;10446796;28;1953;-81
2021/04/03 13:12:05;;;;;;;;;;;10.60;62.40;;;10.05;35.63;96112.25;10444812;28;1499;-82
2021/04/03 13:17:07;;;;;;;;;;;10.40;62.70;;;9.45;36.52;96118.88;10441879;28;1599;-83
2021/04/03 13:22:09;;;;;;;;;;;10.30;62.10;;;9.46;34.97;96115.13;10422247;28;1320;-84
2021/04/03 13:27:11;;;;;;;;;;;10.40;60.60;;;9.47;33.89;96120.22;10429248;28;2011;-83
2021/04/03 13:32:13;;;;;;;;;;;10.40;59.30;;;8.72;36.80;96115.06;10434561;28;1603;-85
2021/04/03 13:37:15;;;;;;;;;;;9.80;61.00;;;8.75;36.69;96119.91;10417273;28;1460;-84
2021/04/03 13:42:16;;;;;;;;;;;11.20;62.00;;;8.28;37.41;96131.16;10412343;28;1587;-85
2021/04/03 13:47:18;;;;;;;;;;;9.60;61.50;;;8.16;38.13;96127.81;10425023;28;1935;-85
2021/04/03 13:52:20;;;;;;;;;;;9.10;62.40;;;7.65;39.12;96121.78;10397906;28;1887;-83
2021/04/03 13:57:22;;;;;;;;;;;9.80;63.10;;;7.80;38.44;96128.13;10415147;28;2041;-84
2021/04/03 14:02:24;;;;;;;;;;;8.70;63.50;;;7.84;38.40;96131.94;10399026;28;2123;-85
2021/04/03 14:07:26;;;;;;;;;;;9.20;63.20;;;8.00;37.95;96134.81;10402179;28;2037;-83
2021/04/03 14:12:30;;;;;;;;;;;8.80;62.70;;;8.12;37.39;96122.94;10423427;28;2036;-88
2021/04/03 14:17:32;;;;;;;;;;;9.00;62.30;;;8.28;36.65;96120.44;10417338;28;2275;-82
2021/04/03 14:22:34;;;;;;;;;;;9.20;62.10;;;8.42;36.36;96107.50;10436539;28;1910;-84
2021/04/03 14:27:36;;;;;;;;;;;9.30;61.20;;;8.43;35.20;96109.94;10436610;28;1934;-86
2021/04/03 14:32:38;;;;;;;;;;;9.30;60.40;;;8.53;35.86;96111.91;10435875;28;1953;-86
2021/04/03 14:37:40;;;;;;;;;;;9.20;60.70;;;8.97;36.20;96109.09;10416272;28;2084;-84
2021/04/03 14:42:42;;;;;;;;;;;9.60;61.50;;;9.04;36.90;96107.84;10427198;28;2037;-86
2021/04/03 14:47:44;;;;;;;;;;;9.70;62.20;;;8.93;36.44;96101.56;10427344;28;2006;-87
2021/04/03 14:52:45;;;;;;;;;;;9.80;61.40;;;8.78;37.30;96108.66;10402553;28;2358;-86
2021/04/03 14:57:52;;;;;;;;;;;9.70;61.90;;;8.79;37.63;96110.31;10417892;28;2243;-86
2021/04/03 15:02:54;;;;;;;;;;;10.00;62.00;;;8.83;38.12;96112.19;10403693;28;2003;-84
2021/04/03 15:07:55;;;;;;;;;;;9.80;62.20;;;8.48;38.79;96104.63;10397826;28;2248;-85
2021/04/03 15:12:57;;;;;;;;;;;9.50;62.50;;;8.83;37.04;96109.50;10394378;28;2061;-85
2021/04/03 15:17:59;;;;;;;;;;;9.60;62.50;;;8.74;37.41;96100.34;10420846;28;1842;-86
2021/04/03 15:23:03;;;;;;;;;;;10.70;63.00;;;8.06;39.95;96097.16;10426289;28;1773;-86
2021/04/03 15:28:05;;;;;;;;;;;9.30;63.30;;;8.42;39.38;96107.50;10425289;28;1931;-83
2021/04/03 15:33:07;;;;;;;;;;;9.30;64.10;;;8.30;39.49;96107.59;10420904;28;1985;-87
2021/04/03 15:38:09;;;;;;;;;;;9.40;64.10;;;8.10;39.83;96111.66;10404974;28;1955;-86
2021/04/03 15:43:11;;;;;;;;;;;10.10;64.60;;;7.94;40.09;96112.53;10414554;28;2018;-85
2021/04/03 15:48:13;;;;;;;;;;;9.20;64.10;;;7.53;39.65;96109.31;10420801;28;1928;-85
2021/04/03 15:53:16;;;;;;;;;;;9.90;63.90;;;7.51;40.42;96108.75;10426265;28;2102;-87
2021/04/03 15:58:18;;;;;;;;;;;8.50;64.10;;;7.46;40.64;96119.38;10427819;28;1729;-85
2021/04/03 16:03:19;;;;;;;;;;;8.40;64.50;;;7.43;41.09;96125.19;10433636;28;1769;-86
2021/04/03 16:08:21;;;;;;;;;;;8.60;65.10;;;7.25;40.82;96123.63;10449890;28;2041;-86
2021/04/03 16:13:23;;;;;;;;;;;9.90;65.50;;;7.23;40.24;96124.88;10452929;28;2274;-87
2021/04/03 16:18:25;;;;;;;;;;;8.20;64.60;;;7.10;41.51;96119.88;10437545;28;1858;-88
2021/04/03 16:23:27;;;;;;;;;;;8.10;65.20;;;7.20;41.37;96122.72;10423073;28;1855;-84
2021/04/03 16:28:28;;;;;;;;;;;8.20;65.70;;;7.27;41.71;96126.84;10429137;28;1975;-86
2021/04/03 16:33:31;;;;;;;;;;;8.20;65.90;;;7.07;42.13;96131.06;10454804;28;1835;-85
2021/04/03 16:38:33;;;;;;;;;;;8.10;66.10;;;6.97;42.22;96127.16;10452338;28;1753;-89
2021/04/03 16:43:38;;;;;;;;;;;9.50;67.00;;;6.81;42.66;96137.81;10431868;28;1778;-88
2021/04/03 16:48:41;;;;;;;;;;;7.90;66.40;;;6.84;42.55;96132.00;10432791;28;1962;-86
2021/04/03 16:53:43;;;;;;;;;;;7.90;66.50;;;6.70;43.09;96142.19;10434244;28;1730;-88
2021/04/03 16:58:50;;;;;;;;;;;7.70;67.00;;;6.55;43.04;96149.91;10421945;28;1879;-87
2021/04/03 17:04:05;;;;;;;;;;;7.70;66.80;;;6.42;42.89;96146.47;10433899;28;1264;-89
2021/04/03 17:09:11;;;;;;;;;;;7.50;67.00;;;6.39;43.78;96156.81;10435023;28;1963;-87
2021/04/03 17:14:21;;;;;;;;;;;7.30;67.70;;;6.30;43.76;96152.88;10416941;28;1922;-88
2021/04/03 17:19:23;;;;;;;;;;;7.30;67.60;;;6.28;43.81;96161.16;10436690;28;2076;-88
2021/04/03 17:24:25;;;;;;;;;;;7.30;68.20;;;6.28;44.60;96163.81;10423653;28;2002;-88
2021/04/03 17:29:27;;;;;;;;;;;7.30;68.30;;;6.24;44.24;96168.03;10424545;28;2067;-87
2021/04/03 17:34:29;;;;;;;;;;;7.30;68.50;;;6.23;44.14;96174.38;10433983;28;1883;-87
2021/04/03 17:39:34;;;;;;;;;;;7.30;68.30;;;6.25;44.32;96176.84;10417503;28;2148;-87
2021/04/03 17:44:40;;;;;;;;;;;7.30;68.60;;;6.13;44.67;96182.19;10414866;28;2065;-90
2021/04/03 17:49:43;;;;;;;;;;;7.20;68.60;;;6.15;45.20;96178.22;10413757;28;2164;-88
2021/04/03 17:54:45;;;;;;;;;;;8.50;70.00;;;6.14;45.55;96191.81;10412044;28;2061;-90
2021/04/03 17:59:48;;;;;;;;;;;7.10;69.40;;;6.15;45.16;96190.78;10405326;28;1977;-88
2021/04/03 18:04:51;;;;;;;;;;;7.10;69.50;;;5.99;45.88;96188.84;10430721;28;2060;-88
2021/04/03 18:09:53;;;;;;;;;;;7.70;70.20;;;6.04;45.56;96196.94;10420088;28;1631;-88
2021/04/03 18:14:56;;;;;;;;;;;7.00;69.90;;;6.04;45.08;96197.75;10420854;28;2069;-88
2021/04/03 18:19:58;;;;;;;;;;;7.10;69.50;;;6.14;44.91;96207.84;10420813;28;1810;-88
2021/04/03 18:25:03;;;;;;;;;;;7.40;69.70;;;6.05;45.56;96206.59;10466431;28;2137;-87
2021/04/03 18:30:09;;;;;;;;;;;7.60;70.00;;;6.00;45.99;96207.28;10466930;28;1771;-85
2021/04/03 18:35:14;;;;;;;;;;;7.00;70.10;;;6.03;46.00;96200.66;10440904;28;1959;-86
2021/04/03 18:40:20;;;;;;;;;;;7.10;70.30;;;5.99;46.26;96202.19;10441429;28;2079;-88
2021/04/03 18:45:22;;;;;;;;;;;7.00;70.40;;;5.95;46.42;96207.16;10441618;28;1867;-87
2021/04/03 18:50:24;;;;;;;;;;;8.50;71.40;;;5.96;46.06;96216.78;10412551;28;1641;-88
2021/04/03 18:55:27;;;;;;;;;;;7.20;70.50;;;5.95;45.92;96215.97;10433075;28;1508;-87
2021/04/03 19:00:29;;;;;;;;;;;7.10;70.60;;;5.92;46.47;96212.97;10414158;28;1287;-88
2021/04/03 19:05:32;;;;;;;;;;;7.40;71.10;;;5.88;46.31;96215.25;10432959;28;1961;-89
2021/04/03 19:10:35;;;;;;;;;;;7.50;71.10;;;5.86;46.07;96222.69;10413788;28;1432;-89
2021/04/03 19:15:37;;;;;;;;;;;6.80;70.40;;;5.79;46.47;96222.00;10420128;28;1600;-86
2021/04/03 19:20:39;;;;;;;;;;;6.80;70.80;;;5.77;47.04;96218.75;10418487;28;1551;-86
2021/04/03 19:25:42;;;;;;;;;;;6.80;71.10;;;5.75;47.14;96220.03;10420298;28;1976;-88
2021/04/03 19:30:44;;;;;;;;;;;6.80;71.20;;;5.73;47.08;96225.59;10416638;28;1571;-85
2021/04/03 19:35:45;;;;;;;;;;;7.60;71.80;;;5.68;46.96;96225.47;10404158;28;1288;-87
2021/04/03 19:40:49;;;;;;;;;;;7.20;71.40;;;5.63;47.04;96217.34;10405594;28;1536;-87
2021/04/03 19:45:51;;;;;;;;;;;7.50;72.00;;;5.56;47.76;96222.00;10424496;28;1894;-87
2021/04/03 19:50:53;;;;;;;;;;;6.80;71.90;;;5.49;48.14;96221.28;10432689;28;1998;-85
2021/04/03 19:55:55;;;;;;;;;;;7.40;72.70;;;5.33;48.62;96223.56;10429359;28;1973;-86
2021/04/03 20:00:58;;;;;;;;;;;6.50;72.10;;;5.20;49.01;96223.78;10433528;28;2011;-87
2021/04/03 20:06:01;;;;;;;;;;;6.40;72.50;;;5.15;49.32;96226.31;10411672;28;1917;-85
2021/04/03 20:11:04;;;;;;;;;;;6.40;73.20;;;5.08;49.42;96234.41;10422347;28;1982;-86
2021/04/03 20:16:07;;;;;;;;;;;6.20;73.20;;;5.10;49.53;96236.84;10434861;28;1849;-87
2021/04/03 20:21:09;;;;;;;;;;;7.00;73.90;;;5.04;49.87;96235.09;10441349;28;2002;-85
2021/04/03 20:26:11;;;;;;;;;;;6.50;74.20;;;4.99;50.51;96238.44;10428980;28;2083;-87
2021/04/03 20:31:13;;;;;;;;;;;6.10;74.50;;;4.82;50.79;96238.25;10433007;28;1973;-86
2021/04/03 20:36:15;;;;;;;;;;;6.90;75.10;;;4.68;51.60;96226.16;10433690;28;1912;-87
2021/04/03 20:41:18;;;;;;;;;;;7.20;75.90;;;4.51;53.04;96230.47;10401252;28;1985;-86
2021/04/03 20:46:20;;;;;;;;;;;5.80;76.20;;;4.41;52.88;96246.16;10417603;28;2018;-87
2021/04/03 20:51:22;;;;;;;;;;;5.70;76.80;;;4.40;54.05;96245.38;10405697;28;2073;-86
2021/04/03 20:56:24;;;;;;;;;;;5.60;77.30;;;4.38;53.78;96239.44;10428478;28;2006;-86
2021/04/03 21:01:26;;;;;;;;;;;5.50;77.90;;;4.35;53.63;96234.56;10424936;28;2101;-86
2021/04/03 21:06:28;;;;;;;;;;;5.50;78.10;;;4.31;54.53;96236.84;10442758;28;1918;-84
2021/04/03 21:11:30;;;;;;;;;;;6.10;79.00;;;4.24;54.68;96230.78;10461450;28;1865;-86
2021/04/03 21:16:32;;;;;;;;;;;5.80;78.90;;;4.23;55.05;96239.81;10468993;28;1928;-85
2021/04/03 21:21:33;;;;;;;;;;;6.30;79.60;;;4.23;55.81;96242.47;10456852;28;1873;-86
2021/04/03 21:26:35;;;;;;;;;;;6.90;80.50;;;4.21;55.03;96241.09;10436834;28;2188;-85
2021/04/03 21:31:37;;;;;;;;;;;5.30;79.90;;;4.26;55.20;96238.53;10421800;28;2339;-86
2021/04/03 21:36:39;;;;;;;;;;;6.70;80.60;;;4.30;55.24;96239.75;10427000;28;2282;-85
2021/04/03 21:41:41;;;;;;;;;;;5.40;79.90;;;4.32;54.42;96241.13;10419921;28;2203;-85
2021/04/03 21:46:43;;;;;;;;;;;5.40;79.50;;;4.44;54.64;96240.38;10436878;28;2008;-86
2021/04/03 21:51:45;;;;;;;;;;;6.20;80.10;;;4.47;54.22;96234.63;10422863;28;2031;-86
2021/04/03 21:56:47;;;;;;;;;;;6.30;80.00;;;4.52;53.88;96238.25;10410868;28;1977;-86
2021/04/03 22:01:50;;;;;;;;;;;5.50;79.40;;;4.54;54.32;96238.03;10438898;28;2106;-87
2021/04/03 22:06:52;;;;;;;;;;;5.90;79.70;;;4.55;54.30;96242.31;10446485;28;2374;-85
2021/04/03 22:11:59;;;;;;;;;;;5.90;79.90;;;4.52;54.28;96248.09;10447621;28;1905;-85
2021/04/03 22:17:03;;;;;;;;;;;5.50;79.80;;;4.51;54.89;96241.13;10458952;28;2090;-84
2021/04/03 22:22:05;;;;;;;;;;;5.60;80.10;;;4.54;55.11;96235.38;10407276;28;2017;-87
2021/04/03 22:27:07;;;;;;;;;;;6.60;80.70;;;4.57;54.83;96234.91;10408175;28;2100;-85
2021/04/03 22:32:09;;;;;;;;;;;6.50;80.90;;;4.54;54.93;96230.03;10452266;28;2051;-85
2021/04/03 22:37:11;;;;;;;;;;;5.60;80.50;;;4.44;55.63;96229.75;10413481;28;2458;-87
2021/04/03 22:42:14;;;;;;;;;;;6.90;81.50;;;4.32;56.22;96230.47;10428020;28;1943;-86
2021/04/03 22:47:16;;;;;;;;;;;5.40;80.90;;;4.26;56.44;96233.22;10431172;28;1983;-87
2021/04/03 22:52:18;;;;;;;;;;;6.40;82.00;;;4.21;56.75;96225.94;10408935;28;1718;-85
2021/04/03 22:57:20;;;;;;;;;;;5.30;81.90;;;4.20;56.47;96224.31;10404330;28;2052;-86
2021/04/03 23:02:22;;;;;;;;;;;5.30;82.00;;;4.14;57.14;96219.88;10407043;28;2071;-86
2021/04/03 23:07:24;;;;;;;;;;;6.80;83.10;;;4.06;57.53;96217.47;10438758;28;1983;-85
2021/04/03 23:12:26;;;;;;;;;;;5.20;82.50;;;3.99;57.57;96222.06;10449872;28;1977;-86
2021/04/03 23:17:27;;;;;;;;;;;5.40;82.80;;;3.83;58.08;96212.84;10420698;28;2003;-86
2021/04/03 23:22:29;;;;;;;;;;;5.00;83.10;;;3.66;58.75;96212.59;10400121;28;1859;-86
2021/04/03 23:27:31;;;;;;;;;;;4.90;83.70;;;3.55;59.64;96215.94;10418530;28;1981;-84
2021/04/03 23:32:33;;;;;;;;;;;4.80;84.30;;;3.39;60.42;96216.50;10414511;28;2091;-86
2021/04/03 23:37:35;;;;;;;;;;;4.60;85.00;;;3.19;61.15;96217.50;10410886;28;1967;-85
2021/04/03 23:42:37;;;;;;;;;;;5.10;85.80;;;3.07;61.49;96213.91;10402328;28;2053;-85
2021/04/03 23:47:39;;;;;;;;;;;4.30;86.10;;;2.95;62.19;96215.63;10408519;28;1962;-86
2021/04/03 23:52:41;;;;;;;;;;;5.90;87.60;;;2.84;62.37;96213.63;10421083;28;1999;-85
2021/04/03 23:57:43;;;;;;;;;;;5.60;87.80;;;2.71;62.78;96215.34;10416062;28;2038;-84
